Thompsons Station, Tennessee
Current Conditions -  °F | °C
As of 4:53 PM on Friday 19 Dec 2014 (Local Time) from KBNA Reporting Station
Broken Clouds Broken Clouds  
Wind Chill: 33°   Ceiling: 20000
Heat Index: 39°   Visibility: 10mi
Dew Point: 29°   Wind: 8mph
Humidity: 67%   Direction: 20°NNE
Pressure: 30.24"   Gusts: NA
Location:  35.8°N, 86.91°W
Report Text: KBNA 192253Z 02007KT 10SM FEW110 BKN200 04/M02 A3024 RMK AO2 SLP243 T00391017
Loading
Personal Weather Stations






























Interactive Weather Map New forecast layout! Learn more

10-Day Weather Forecast

Advertisements
Track Severe Weather on mobile